sensor_id;sensor_type;location;lat;lon;timestamp;pressure;altitude;pressure_sealevel;temperature;humidity
32933;BME280;19444;50.518;10.870;2023-02-10T00:02:13;98227.97;;;-7.42;100.00
32933;BME280;19444;50.518;10.870;2023-02-10T00:05:10;98226.75;;;-7.74;100.00
32933;BME280;19444;50.518;10.870;2023-02-10T00:08:07;98227.34;;;-7.62;100.00
32933;BME280;19444;50.518;10.870;2023-02-10T00:11:07;98238.13;;;-7.75;100.00
32933;BME280;19444;50.518;10.870;2023-02-10T00:14:05;98234.19;;;-7.79;100.00
32933;BME280;19444;50.518;10.870;2023-02-10T00:17:03;98237.16;;;-7.74;100.00
32933;BME280;19444;50.518;10.870;2023-02-10T00:19:59;98252.13;;;-7.58;100.00
32933;BME280;19444;50.518;10.870;2023-02-10T00:22:56;98255.47;;;-7.66;100.00
32933;BME280;19444;50.518;10.870;2023-02-10T00:25:53;98243.78;;;-7.80;100.00
32933;BME280;19444;50.518;10.870;2023-02-10T00:28:50;98248.53;;;-7.75;100.00
32933;BME280;19444;50.518;10.870;2023-02-10T00:31:48;98253.50;;;-7.82;100.00
32933;BME280;19444;50.518;10.870;2023-02-10T00:34:45;98256.13;;;-7.82;100.00
32933;BME280;19444;50.518;10.870;2023-02-10T00:37:42;98253.22;;;-7.79;100.00
32933;BME280;19444;50.518;10.870;2023-02-10T00:40:39;98260.75;;;-7.76;100.00
32933;BME280;19444;50.518;10.870;2023-02-10T00:43:36;98272.53;;;-7.81;100.00
32933;BME280;19444;50.518;10.870;2023-02-10T00:46:36;98273.38;;;-7.81;100.00
32933;BME280;19444;50.518;10.870;2023-02-10T00:49:33;98268.44;;;-8.02;100.00
32933;BME280;19444;50.518;10.870;2023-02-10T00:52:30;98274.00;;;-7.96;100.00
32933;BME280;19444;50.518;10.870;2023-02-10T00:55:27;98273.00;;;-7.86;100.00
32933;BME280;19444;50.518;10.870;2023-02-10T00:58:24;98277.97;;;-7.92;100.00
32933;BME280;19444;50.518;10.870;2023-02-10T01:01:21;98282.22;;;-7.91;100.00
32933;BME280;19444;50.518;10.870;2023-02-10T01:04:18;98285.88;;;-7.84;100.00
32933;BME280;19444;50.518;10.870;2023-02-10T01:07:15;98277.31;;;-7.94;100.00
32933;BME280;19444;50.518;10.870;2023-02-10T01:10:12;98280.03;;;-7.96;100.00
32933;BME280;19444;50.518;10.870;2023-02-10T01:13:10;98279.22;;;-7.96;100.00
32933;BME280;19444;50.518;10.870;2023-02-10T01:16:11;98279.69;;;-7.83;100.00
32933;BME280;19444;50.518;10.870;2023-02-10T01:19:09;98276.13;;;-7.82;100.00
32933;BME280;19444;50.518;10.870;2023-02-10T01:22:06;98281.16;;;-7.81;100.00
32933;BME280;19444;50.518;10.870;2023-02-10T01:25:04;98275.06;;;-7.89;100.00
32933;BME280;19444;50.518;10.870;2023-02-10T01:28:03;98276.63;;;-7.96;100.00
32933;BME280;19444;50.518;10.870;2023-02-10T01:31:06;98279.88;;;-8.12;100.00
32933;BME280;19444;50.518;10.870;2023-02-10T01:34:03;98283.38;;;-8.04;100.00
32933;BME280;19444;50.518;10.870;2023-02-10T01:37:00;98279.13;;;-8.05;100.00
32933;BME280;19444;50.518;10.870;2023-02-10T01:39:57;98278.34;;;-7.87;100.00
32933;BME280;19444;50.518;10.870;2023-02-10T01:42:53;98279.03;;;-7.85;100.00
32933;BME280;19444;50.518;10.870;2023-02-10T01:45:50;98274.63;;;-7.85;100.00
32933;BME280;19444;50.518;10.870;2023-02-10T01:48:48;98275.22;;;-7.91;100.00
32933;BME280;19444;50.518;10.870;2023-02-10T01:51:58;98283.59;;;-7.97;100.00
32933;BME280;19444;50.518;10.870;2023-02-10T01:55:03;98286.59;;;-7.92;100.00
32933;BME280;19444;50.518;10.870;2023-02-10T01:58:08;98286.84;;;-7.85;100.00
32933;BME280;19444;50.518;10.870;2023-02-10T02:01:07;98286.53;;;-7.82;100.00
32933;BME280;19444;50.518;10.870;2023-02-10T02:04:04;98298.34;;;-7.88;100.00
32933;BME280;19444;50.518;10.870;2023-02-10T02:07:01;98306.19;;;-7.97;100.00
32933;BME280;19444;50.518;10.870;2023-02-10T02:09:59;98305.41;;;-7.80;100.00
32933;BME280;19444;50.518;10.870;2023-02-10T02:13:04;98305.25;;;-7.79;100.00
32933;BME280;19444;50.518;10.870;2023-02-10T02:16:35;98301.09;;;-7.89;100.00
32933;BME280;19444;50.518;10.870;2023-02-10T02:27:43;98314.69;;;-7.78;100.00
32933;BME280;19444;50.518;10.870;2023-02-10T02:30:55;98302.44;;;-7.85;100.00
32933;BME280;19444;50.518;10.870;2023-02-10T02:37:33;98286.50;;;-8.00;100.00
32933;BME280;19444;50.518;10.870;2023-02-10T02:40:33;98290.66;;;-8.07;100.00
32933;BME280;19444;50.518;10.870;2023-02-10T02:43:29;98299.53;;;-7.82;100.00
32933;BME280;19444;50.518;10.870;2023-02-10T02:46:49;98300.94;;;-7.88;100.00
32933;BME280;19444;50.518;10.870;2023-02-10T02:56:32;98293.75;;;-7.76;100.00
32933;BME280;19444;50.518;10.870;2023-02-10T02:59:52;98298.19;;;-7.68;100.00
32933;BME280;19444;50.518;10.870;2023-02-10T03:02:50;98290.03;;;-7.56;100.00
32933;BME280;19444;50.518;10.870;2023-02-10T03:05:49;98302.50;;;-7.41;100.00
32933;BME280;19444;50.518;10.870;2023-02-10T03:08:46;98291.72;;;-7.29;100.00
32933;BME280;19444;50.518;10.870;2023-02-10T03:11:44;98290.69;;;-7.36;100.00
32933;BME280;19444;50.518;10.870;2023-02-10T03:14:40;98288.75;;;-7.34;100.00
32933;BME280;19444;50.518;10.870;2023-02-10T03:17:38;98284.44;;;-7.25;100.00
32933;BME280;19444;50.518;10.870;2023-02-10T03:20:35;98283.00;;;-7.20;100.00
32933;BME280;19444;50.518;10.870;2023-02-10T03:23:31;98290.00;;;-7.20;100.00
32933;BME280;19444;50.518;10.870;2023-02-10T03:26:29;98283.06;;;-7.11;100.00
32933;BME280;19444;50.518;10.870;2023-02-10T03:29:26;98292.31;;;-7.17;100.00
32933;BME280;19444;50.518;10.870;2023-02-10T03:32:23;98294.88;;;-6.99;100.00
32933;BME280;19444;50.518;10.870;2023-02-10T03:35:20;98289.50;;;-6.98;100.00
32933;BME280;19444;50.518;10.870;2023-02-10T03:38:17;98290.38;;;-6.89;100.00
32933;BME280;19444;50.518;10.870;2023-02-10T03:41:14;98298.75;;;-6.77;100.00
32933;BME280;19444;50.518;10.870;2023-02-10T03:44:11;98286.25;;;-6.74;100.00
32933;BME280;19444;50.518;10.870;2023-02-10T03:47:08;98292.63;;;-6.68;100.00
32933;BME280;19444;50.518;10.870;2023-02-10T03:50:05;98290.69;;;-6.66;100.00
32933;BME280;19444;50.518;10.870;2023-02-10T03:53:02;98308.63;;;-6.63;100.00
32933;BME280;19444;50.518;10.870;2023-02-10T03:56:00;98296.41;;;-6.63;100.00
32933;BME280;19444;50.518;10.870;2023-02-10T03:59:01;98301.06;;;-6.48;100.00
32933;BME280;19444;50.518;10.870;2023-02-10T04:01:58;98317.25;;;-6.37;100.00
32933;BME280;19444;50.518;10.870;2023-02-10T04:04:55;98315.94;;;-6.33;100.00
32933;BME280;19444;50.518;10.870;2023-02-10T04:07:52;98307.16;;;-6.32;100.00
32933;BME280;19444;50.518;10.870;2023-02-10T04:10:48;98315.66;;;-6.29;100.00
32933;BME280;19444;50.518;10.870;2023-02-10T04:13:45;98306.03;;;-6.29;100.00
32933;BME280;19444;50.518;10.870;2023-02-10T04:16:42;98313.44;;;-6.16;100.00
32933;BME280;19444;50.518;10.870;2023-02-10T04:19:39;98317.50;;;-6.14;100.00
32933;BME280;19444;50.518;10.870;2023-02-10T04:22:36;98319.00;;;-6.11;100.00
32933;BME280;19444;50.518;10.870;2023-02-10T04:25:33;98336.78;;;-6.07;100.00
32933;BME280;19444;50.518;10.870;2023-02-10T04:28:30;98334.03;;;-5.97;100.00
32933;BME280;19444;50.518;10.870;2023-02-10T04:31:27;98325.06;;;-5.86;100.00
32933;BME280;19444;50.518;10.870;2023-02-10T04:34:24;98333.25;;;-5.81;100.00
32933;BME280;19444;50.518;10.870;2023-02-10T04:37:22;98319.72;;;-5.85;100.00
32933;BME280;19444;50.518;10.870;2023-02-10T04:40:19;98322.97;;;-5.83;100.00
32933;BME280;19444;50.518;10.870;2023-02-10T04:43:16;98324.28;;;-5.79;100.00
32933;BME280;19444;50.518;10.870;2023-02-10T04:46:13;98321.22;;;-5.74;100.00
32933;BME280;19444;50.518;10.870;2023-02-10T04:49:10;98331.31;;;-5.71;100.00
32933;BME280;19444;50.518;10.870;2023-02-10T04:52:06;98328.75;;;-5.63;100.00
32933;BME280;19444;50.518;10.870;2023-02-10T04:55:03;98331.97;;;-5.69;100.00
32933;BME280;19444;50.518;10.870;2023-02-10T04:58:01;98336.38;;;-5.69;100.00
32933;BME280;19444;50.518;10.870;2023-02-10T05:00:58;98342.13;;;-5.66;100.00
32933;BME280;19444;50.518;10.870;2023-02-10T05:03:55;98338.38;;;-5.55;100.00
32933;BME280;19444;50.518;10.870;2023-02-10T05:06:51;98345.09;;;-5.45;100.00
32933;BME280;19444;50.518;10.870;2023-02-10T05:09:50;98347.38;;;-5.50;100.00
32933;BME280;19444;50.518;10.870;2023-02-10T05:12:47;98359.78;;;-5.44;100.00
32933;BME280;19444;50.518;10.870;2023-02-10T05:15:44;98358.19;;;-5.36;100.00
32933;BME280;19444;50.518;10.870;2023-02-10T05:18:42;98361.09;;;-5.39;100.00
32933;BME280;19444;50.518;10.870;2023-02-10T05:21:39;98363.59;;;-5.30;100.00
32933;BME280;19444;50.518;10.870;2023-02-10T05:24:36;98360.97;;;-5.30;100.00
32933;BME280;19444;50.518;10.870;2023-02-10T05:27:33;98357.06;;;-5.26;100.00
32933;BME280;19444;50.518;10.870;2023-02-10T05:30:30;98349.53;;;-5.29;100.00
32933;BME280;19444;50.518;10.870;2023-02-10T05:33:27;98358.69;;;-5.25;100.00
32933;BME280;19444;50.518;10.870;2023-02-10T05:36:24;98347.06;;;-5.22;100.00
32933;BME280;19444;50.518;10.870;2023-02-10T05:39:23;98354.28;;;-5.16;100.00
32933;BME280;19444;50.518;10.870;2023-02-10T05:42:20;98362.59;;;-5.12;100.00
32933;BME280;19444;50.518;10.870;2023-02-10T05:45:17;98360.50;;;-5.09;100.00
32933;BME280;19444;50.518;10.870;2023-02-10T05:48:14;98365.38;;;-5.06;100.00
32933;BME280;19444;50.518;10.870;2023-02-10T05:51:11;98353.47;;;-5.08;100.00
32933;BME280;19444;50.518;10.870;2023-02-10T05:54:09;98360.16;;;-4.98;100.00
32933;BME280;19444;50.518;10.870;2023-02-10T05:57:06;98352.31;;;-4.98;100.00
32933;BME280;19444;50.518;10.870;2023-02-10T06:00:05;98350.19;;;-4.94;100.00
32933;BME280;19444;50.518;10.870;2023-02-10T06:03:02;98352.50;;;-4.99;100.00
32933;BME280;19444;50.518;10.870;2023-02-10T06:05:59;98356.41;;;-4.95;100.00
32933;BME280;19444;50.518;10.870;2023-02-10T06:08:56;98346.44;;;-5.00;100.00
32933;BME280;19444;50.518;10.870;2023-02-10T06:11:54;98347.75;;;-4.96;100.00
32933;BME280;19444;50.518;10.870;2023-02-10T06:14:50;98364.41;;;-4.97;100.00
32933;BME280;19444;50.518;10.870;2023-02-10T06:17:48;98369.00;;;-4.91;100.00
32933;BME280;19444;50.518;10.870;2023-02-10T06:20:46;98370.28;;;-4.87;100.00
32933;BME280;19444;50.518;10.870;2023-02-10T06:23:49;98380.44;;;-4.83;100.00
32933;BME280;19444;50.518;10.870;2023-02-10T06:26:47;98382.09;;;-4.82;100.00
32933;BME280;19444;50.518;10.870;2023-02-10T06:29:44;98380.28;;;-4.82;100.00
32933;BME280;19444;50.518;10.870;2023-02-10T06:32:41;98373.09;;;-4.64;100.00
32933;BME280;19444;50.518;10.870;2023-02-10T06:35:37;98386.63;;;-4.76;100.00
32933;BME280;19444;50.518;10.870;2023-02-10T06:38:36;98386.81;;;-4.70;100.00
32933;BME280;19444;50.518;10.870;2023-02-10T06:41:33;98384.19;;;-4.62;100.00
32933;BME280;19444;50.518;10.870;2023-02-10T06:44:30;98388.44;;;-4.61;100.00
32933;BME280;19444;50.518;10.870;2023-02-10T06:47:27;98387.13;;;-4.56;100.00
32933;BME280;19444;50.518;10.870;2023-02-10T06:50:24;98389.41;;;-4.62;100.00
32933;BME280;19444;50.518;10.870;2023-02-10T06:53:21;98396.44;;;-4.54;100.00
32933;BME280;19444;50.518;10.870;2023-02-10T06:56:18;98386.63;;;-4.52;100.00
32933;BME280;19444;50.518;10.870;2023-02-10T06:59:15;98390.69;;;-4.41;100.00
32933;BME280;19444;50.518;10.870;2023-02-10T07:02:12;98387.09;;;-4.40;100.00
32933;BME280;19444;50.518;10.870;2023-02-10T07:05:10;98390.69;;;-4.41;100.00
32933;BME280;19444;50.518;10.870;2023-02-10T07:08:08;98397.38;;;-4.31;100.00
32933;BME280;19444;50.518;10.870;2023-02-10T07:11:05;98392.81;;;-4.28;100.00
32933;BME280;19444;50.518;10.870;2023-02-10T07:14:02;98392.47;;;-4.17;100.00
32933;BME280;19444;50.518;10.870;2023-02-10T07:16:58;98393.91;;;-4.07;100.00
32933;BME280;19444;50.518;10.870;2023-02-10T07:19:55;98394.06;;;-4.00;100.00
32933;BME280;19444;50.518;10.870;2023-02-10T07:22:52;98397.50;;;-3.99;100.00
32933;BME280;19444;50.518;10.870;2023-02-10T07:25:49;98385.38;;;-3.92;100.00
32933;BME280;19444;50.518;10.870;2023-02-10T07:28:46;98390.56;;;-3.84;100.00
32933;BME280;19444;50.518;10.870;2023-02-10T07:31:43;98402.63;;;-3.75;100.00
32933;BME280;19444;50.518;10.870;2023-02-10T07:34:40;98402.31;;;-3.72;100.00
32933;BME280;19444;50.518;10.870;2023-02-10T07:37:38;98405.72;;;-3.63;100.00
32933;BME280;19444;50.518;10.870;2023-02-10T07:40:35;98408.09;;;-3.46;100.00
32933;BME280;19444;50.518;10.870;2023-02-10T07:43:32;98409.72;;;-3.45;100.00
32933;BME280;19444;50.518;10.870;2023-02-10T07:46:29;98415.13;;;-3.46;100.00
32933;BME280;19444;50.518;10.870;2023-02-10T07:49:26;98421.38;;;-3.47;100.00
32933;BME280;19444;50.518;10.870;2023-02-10T07:52:25;98423.63;;;-3.44;100.00
32933;BME280;19444;50.518;10.870;2023-02-10T07:55:22;98419.56;;;-3.47;100.00
32933;BME280;19444;50.518;10.870;2023-02-10T07:58:19;98417.75;;;-3.46;100.00
32933;BME280;19444;50.518;10.870;2023-02-10T08:01:16;98420.66;;;-3.41;100.00
32933;BME280;19444;50.518;10.870;2023-02-10T08:04:13;98436.09;;;-3.46;100.00
32933;BME280;19444;50.518;10.870;2023-02-10T08:07:10;98443.44;;;-3.41;100.00
32933;BME280;19444;50.518;10.870;2023-02-10T08:10:08;98443.88;;;-3.30;100.00
32933;BME280;19444;50.518;10.870;2023-02-10T08:13:05;98446.81;;;-3.25;100.00
32933;BME280;19444;50.518;10.870;2023-02-10T08:16:06;98468.22;;;-3.13;100.00
32933;BME280;19444;50.518;10.870;2023-02-10T08:19:04;98459.69;;;-3.15;100.00
32933;BME280;19444;50.518;10.870;2023-02-10T08:22:05;98458.16;;;-3.01;100.00
32933;BME280;19444;50.518;10.870;2023-02-10T08:25:03;98454.84;;;-2.72;100.00
32933;BME280;19444;50.518;10.870;2023-02-10T08:28:00;98443.84;;;-2.91;100.00
32933;BME280;19444;50.518;10.870;2023-02-10T08:31:03;98450.72;;;-2.90;100.00
32933;BME280;19444;50.518;10.870;2023-02-10T08:34:00;98451.75;;;-2.76;100.00
32933;BME280;19444;50.518;10.870;2023-02-10T08:36:57;98455.78;;;-2.88;100.00
32933;BME280;19444;50.518;10.870;2023-02-10T08:39:54;98454.38;;;-2.76;100.00
32933;BME280;19444;50.518;10.870;2023-02-10T08:42:51;98451.88;;;-2.69;100.00
32933;BME280;19444;50.518;10.870;2023-02-10T08:45:49;98450.81;;;-2.60;100.00
32933;BME280;19444;50.518;10.870;2023-02-10T08:48:46;98458.19;;;-2.55;100.00
32933;BME280;19444;50.518;10.870;2023-02-10T08:51:43;98451.72;;;-2.30;100.00
32933;BME280;19444;50.518;10.870;2023-02-10T08:54:40;98445.78;;;-2.24;100.00
32933;BME280;19444;50.518;10.870;2023-02-10T08:57:38;98447.53;;;-2.39;100.00
32933;BME280;19444;50.518;10.870;2023-02-10T09:00:35;98443.88;;;-2.53;100.00
32933;BME280;19444;50.518;10.870;2023-02-10T09:03:32;98439.00;;;-2.18;100.00
32933;BME280;19444;50.518;10.870;2023-02-10T09:06:40;98433.41;;;-1.86;100.00
32933;BME280;19444;50.518;10.870;2023-02-10T09:09:41;98441.66;;;-1.74;100.00
32933;BME280;19444;50.518;10.870;2023-02-10T09:12:39;98454.44;;;-1.71;100.00
32933;BME280;19444;50.518;10.870;2023-02-10T09:15:38;98449.28;;;-1.64;100.00
32933;BME280;19444;50.518;10.870;2023-02-10T09:18:35;98450.53;;;-1.46;100.00
32933;BME280;19444;50.518;10.870;2023-02-10T09:21:32;98451.25;;;-1.52;100.00
32933;BME280;19444;50.518;10.870;2023-02-10T09:24:42;98455.63;;;-1.44;100.00
32933;BME280;19444;50.518;10.870;2023-02-10T09:27:43;98464.94;;;-1.27;100.00
32933;BME280;19444;50.518;10.870;2023-02-10T09:30:40;98455.75;;;-1.16;100.00
32933;BME280;19444;50.518;10.870;2023-02-10T09:33:39;98462.03;;;-1.32;100.00
32933;BME280;19444;50.518;10.870;2023-02-10T09:36:37;98463.19;;;-1.20;100.00
32933;BME280;19444;50.518;10.870;2023-02-10T09:39:35;98465.28;;;-1.30;100.00
32933;BME280;19444;50.518;10.870;2023-02-10T09:42:53;98460.59;;;-1.34;100.00
32933;BME280;19444;50.518;10.870;2023-02-10T09:46:09;98459.09;;;-1.07;100.00
32933;BME280;19444;50.518;10.870;2023-02-10T09:53:03;98467.53;;;-1.12;100.00
32933;BME280;19444;50.518;10.870;2023-02-10T09:56:13;98470.88;;;-1.03;100.00
32933;BME280;19444;50.518;10.870;2023-02-10T09:59:19;98475.84;;;-0.94;100.00
32933;BME280;19444;50.518;10.870;2023-02-10T10:02:49;98470.53;;;-1.15;100.00
32933;BME280;19444;50.518;10.870;2023-02-10T10:06:14;98475.63;;;-0.77;100.00
32933;BME280;19444;50.518;10.870;2023-02-10T10:09:38;98472.69;;;-1.04;100.00
32933;BME280;19444;50.518;10.870;2023-02-10T10:12:32;98484.84;;;-0.67;100.00
32933;BME280;19444;50.518;10.870;2023-02-10T10:15:37;98478.88;;;-0.75;100.00
32933;BME280;19444;50.518;10.870;2023-02-10T10:26:19;98476.97;;;-0.45;100.00
32933;BME280;19444;50.518;10.870;2023-02-10T10:29:55;98474.75;;;-0.63;100.00
32933;BME280;19444;50.518;10.870;2023-02-10T10:32:58;98486.06;;;-0.26;100.00
32933;BME280;19444;50.518;10.870;2023-02-10T10:35:56;98475.00;;;-0.58;100.00
32933;BME280;19444;50.518;10.870;2023-02-10T10:39:13;98480.91;;;-0.35;100.00
32933;BME280;19444;50.518;10.870;2023-02-10T10:45:49;98477.72;;;-0.51;100.00
32933;BME280;19444;50.518;10.870;2023-02-10T10:48:49;98462.13;;;-0.46;100.00
32933;BME280;19444;50.518;10.870;2023-02-10T10:51:47;98463.38;;;-0.21;100.00
32933;BME280;19444;50.518;10.870;2023-02-10T10:54:44;98462.84;;;-0.10;100.00
32933;BME280;19444;50.518;10.870;2023-02-10T10:57:42;98466.22;;;0.06;100.00
32933;BME280;19444;50.518;10.870;2023-02-10T11:00:54;98459.81;;;0.15;100.00
32933;BME280;19444;50.518;10.870;2023-02-10T11:07:12;98460.91;;;-0.01;100.00
32933;BME280;19444;50.518;10.870;2023-02-10T11:11:05;98457.63;;;0.25;100.00
32933;BME280;19444;50.518;10.870;2023-02-10T11:13:55;98451.31;;;0.19;100.00
32933;BME280;19444;50.518;10.870;2023-02-10T11:16:57;98451.44;;;0.39;100.00
32933;BME280;19444;50.518;10.870;2023-02-10T11:23:16;98453.69;;;0.42;100.00
32933;BME280;19444;50.518;10.870;2023-02-10T11:26:21;98450.47;;;0.12;100.00
32933;BME280;19444;50.518;10.870;2023-02-10T11:29:18;98452.97;;;0.27;100.00
32933;BME280;19444;50.518;10.870;2023-02-10T11:32:29;98452.44;;;0.38;100.00
32933;BME280;19444;50.518;10.870;2023-02-10T11:35:29;98444.03;;;0.56;100.00
32933;BME280;19444;50.518;10.870;2023-02-10T11:38:28;98445.50;;;0.72;100.00
32933;BME280;19444;50.518;10.870;2023-02-10T11:41:30;98441.28;;;0.77;100.00
32933;BME280;19444;50.518;10.870;2023-02-10T11:44:31;98440.56;;;1.17;100.00
32933;BME280;19444;50.518;10.870;2023-02-10T11:47:31;98435.72;;;1.20;100.00
32933;BME280;19444;50.518;10.870;2023-02-10T11:50:34;98435.38;;;1.50;100.00
32933;BME280;19444;50.518;10.870;2023-02-10T11:53:36;98434.75;;;1.54;100.00
32933;BME280;19444;50.518;10.870;2023-02-10T11:56:54;98428.19;;;1.17;100.00
32933;BME280;19444;50.518;10.870;2023-02-10T12:04:02;98439.13;;;1.01;100.00
32933;BME280;19444;50.518;10.870;2023-02-10T12:07:41;98430.94;;;0.89;100.00
32933;BME280;19444;50.518;10.870;2023-02-10T12:14:30;98427.41;;;1.36;100.00
32933;BME280;19444;50.518;10.870;2023-02-10T12:17:37;98424.38;;;2.06;100.00
32933;BME280;19444;50.518;10.870;2023-02-10T12:20:53;98412.94;;;2.90;100.00
32933;BME280;19444;50.518;10.870;2023-02-10T12:40:51;98387.91;;;3.74;100.00
32933;BME280;19444;50.518;10.870;2023-02-10T12:45:12;98385.59;;;3.59;100.00
32933;BME280;19444;50.518;10.870;2023-02-10T12:51:57;98388.69;;;2.48;100.00
32933;BME280;19444;50.518;10.870;2023-02-10T12:55:18;98388.38;;;2.69;100.00
32933;BME280;19444;50.518;10.870;2023-02-10T12:58:45;98390.22;;;2.11;100.00
32933;BME280;19444;50.518;10.870;2023-02-10T13:02:05;98389.63;;;2.60;100.00
32933;BME280;19444;50.518;10.870;2023-02-10T13:05:16;98387.66;;;2.94;100.00
32933;BME280;19444;50.518;10.870;2023-02-10T13:08:23;98389.69;;;2.92;100.00
32933;BME280;19444;50.518;10.870;2023-02-10T13:14:47;98392.84;;;2.75;100.00
32933;BME280;19444;50.518;10.870;2023-02-10T13:17:49;98401.34;;;2.19;100.00
32933;BME280;19444;50.518;10.870;2023-02-10T13:24:09;98398.69;;;2.39;100.00
32933;BME280;19444;50.518;10.870;2023-02-10T13:27:34;98400.38;;;2.07;100.00
32933;BME280;19444;50.518;10.870;2023-02-10T13:34:24;98395.91;;;1.81;100.00
32933;BME280;19444;50.518;10.870;2023-02-10T13:37:37;98403.66;;;1.89;100.00
32933;BME280;19444;50.518;10.870;2023-02-10T13:40:54;98389.44;;;1.70;100.00
32933;BME280;19444;50.518;10.870;2023-02-10T13:44:30;98385.97;;;1.70;100.00
32933;BME280;19444;50.518;10.870;2023-02-10T13:47:54;98388.81;;;1.55;100.00
32933;BME280;19444;50.518;10.870;2023-02-10T13:51:04;98385.75;;;1.91;100.00
32933;BME280;19444;50.518;10.870;2023-02-10T13:54:03;98389.41;;;1.97;100.00
32933;BME280;19444;50.518;10.870;2023-02-10T13:57:00;98384.53;;;1.54;100.00
32933;BME280;19444;50.518;10.870;2023-02-10T14:00:20;98387.63;;;1.58;100.00
32933;BME280;19444;50.518;10.870;2023-02-10T14:03:32;98376.44;;;1.49;100.00
32933;BME280;19444;50.518;10.870;2023-02-10T14:06:40;98388.22;;;1.60;100.00
32933;BME280;19444;50.518;10.870;2023-02-10T14:09:37;98388.84;;;1.49;100.00
32933;BME280;19444;50.518;10.870;2023-02-10T14:12:34;98382.50;;;1.23;100.00
32933;BME280;19444;50.518;10.870;2023-02-10T14:15:39;98395.06;;;1.01;100.00
32933;BME280;19444;50.518;10.870;2023-02-10T14:18:38;98388.38;;;1.25;100.00
32933;BME280;19444;50.518;10.870;2023-02-10T14:21:43;98388.41;;;1.45;100.00
32933;BME280;19444;50.518;10.870;2023-02-10T14:24:43;98384.16;;;1.37;100.00
32933;BME280;19444;50.518;10.870;2023-02-10T14:27:53;98387.72;;;0.97;100.00
32933;BME280;19444;50.518;10.870;2023-02-10T14:31:17;98391.66;;;1.21;100.00
32933;BME280;19444;50.518;10.870;2023-02-10T14:34:26;98391.63;;;1.14;100.00
32933;BME280;19444;50.518;10.870;2023-02-10T14:37:25;98392.09;;;0.63;100.00
32933;BME280;19444;50.518;10.870;2023-02-10T14:40:25;98393.38;;;0.80;100.00
32933;BME280;19444;50.518;10.870;2023-02-10T14:43:27;98381.50;;;0.50;100.00
32933;BME280;19444;50.518;10.870;2023-02-10T14:46:28;98386.72;;;0.43;100.00
32933;BME280;19444;50.518;10.870;2023-02-10T14:49:26;98381.47;;;0.43;100.00
32933;BME280;19444;50.518;10.870;2023-02-10T14:52:29;98377.09;;;0.70;100.00
32933;BME280;19444;50.518;10.870;2023-02-10T14:55:38;98370.38;;;0.61;100.00
32933;BME280;19444;50.518;10.870;2023-02-10T14:58:43;98377.06;;;0.64;100.00
32933;BME280;19444;50.518;10.870;2023-02-10T15:01:41;98374.78;;;0.47;100.00
32933;BME280;19444;50.518;10.870;2023-02-10T15:04:44;98376.09;;;0.71;100.00
32933;BME280;19444;50.518;10.870;2023-02-10T15:07:47;98378.25;;;0.54;100.00
32933;BME280;19444;50.518;10.870;2023-02-10T15:10:48;98381.66;;;0.42;100.00
32933;BME280;19444;50.518;10.870;2023-02-10T15:13:48;98377.00;;;0.37;100.00
32933;BME280;19444;50.518;10.870;2023-02-10T15:16:46;98377.06;;;0.16;100.00
32933;BME280;19444;50.518;10.870;2023-02-10T15:19:59;98375.69;;;0.20;100.00
32933;BME280;19444;50.518;10.870;2023-02-10T15:26:15;98369.41;;;0.21;100.00
32933;BME280;19444;50.518;10.870;2023-02-10T15:29:16;98369.00;;;0.24;100.00
32933;BME280;19444;50.518;10.870;2023-02-10T15:32:20;98377.81;;;0.44;100.00
32933;BME280;19444;50.518;10.870;2023-02-10T15:35:17;98376.13;;;0.30;100.00
32933;BME280;19444;50.518;10.870;2023-02-10T15:38:14;98374.09;;;0.32;100.00
32933;BME280;19444;50.518;10.870;2023-02-10T15:44:38;98373.47;;;0.23;100.00
32933;BME280;19444;50.518;10.870;2023-02-10T15:47:53;98374.31;;;0.31;100.00
32933;BME280;19444;50.518;10.870;2023-02-10T15:50:50;98375.34;;;0.36;100.00
32933;BME280;19444;50.518;10.870;2023-02-10T15:53:47;98364.03;;;0.49;100.00
32933;BME280;19444;50.518;10.870;2023-02-10T15:57:01;98373.34;;;0.04;100.00
32933;BME280;19444;50.518;10.870;2023-02-10T15:59:58;98366.91;;;0.13;100.00
32933;BME280;19444;50.518;10.870;2023-02-10T16:02:55;98372.19;;;-0.22;100.00
32933;BME280;19444;50.518;10.870;2023-02-10T16:05:52;98373.75;;;0.01;100.00
32933;BME280;19444;50.518;10.870;2023-02-10T16:08:56;98371.94;;;0.08;100.00
32933;BME280;19444;50.518;10.870;2023-02-10T16:11:54;98374.25;;;-0.17;100.00
32933;BME280;19444;50.518;10.870;2023-02-10T16:14:51;98368.00;;;-0.10;100.00
32933;BME280;19444;50.518;10.870;2023-02-10T16:17:52;98376.34;;;-0.06;100.00
32933;BME280;19444;50.518;10.870;2023-02-10T16:20:50;98361.06;;;-0.17;100.00
32933;BME280;19444;50.518;10.870;2023-02-10T16:23:47;98357.38;;;-0.23;100.00
32933;BME280;19444;50.518;10.870;2023-02-10T16:26:46;98356.16;;;-0.27;100.00
32933;BME280;19444;50.518;10.870;2023-02-10T16:29:43;98351.72;;;-0.20;100.00
32933;BME280;19444;50.518;10.870;2023-02-10T16:32:40;98355.56;;;-0.22;100.00
32933;BME280;19444;50.518;10.870;2023-02-10T16:35:37;98350.75;;;-0.12;100.00
32933;BME280;19444;50.518;10.870;2023-02-10T16:38:34;98358.59;;;-0.25;100.00
32933;BME280;19444;50.518;10.870;2023-02-10T16:41:31;98369.63;;;-0.37;100.00
32933;BME280;19444;50.518;10.870;2023-02-10T16:44:28;98361.59;;;-0.29;100.00
32933;BME280;19444;50.518;10.870;2023-02-10T16:47:25;98362.25;;;-0.48;100.00
32933;BME280;19444;50.518;10.870;2023-02-10T16:50:34;98366.34;;;-0.17;100.00
32933;BME280;19444;50.518;10.870;2023-02-10T16:53:31;98366.38;;;-0.39;100.00
32933;BME280;19444;50.518;10.870;2023-02-10T16:56:28;98362.38;;;-0.35;100.00
32933;BME280;19444;50.518;10.870;2023-02-10T16:59:25;98357.94;;;-0.28;100.00
32933;BME280;19444;50.518;10.870;2023-02-10T17:02:24;98369.16;;;-0.47;100.00
32933;BME280;19444;50.518;10.870;2023-02-10T17:05:21;98381.09;;;-0.51;100.00